الصفحة الرئيسية
METAR-TAF:

METAR-TAF

مطار :

مطار كوناكري الدولي

كوناكري, غينيا

دائرة عرض: 09-34N, خط طول: 013-37W, ارتفاع: 26 متر

مراقبة الطقس الحالي

تاريخ ووقت الإصدار 3ساعات و 47 دقيقة قبل الساعة 23:00UTC
ريح 6 عقدة من الغرب
درجة الحرارة 29°درجة مئوية
الرطوبة 79%
ضغط 1012 hPa
الرؤية 10 كم أو أكثر
غيوم قليلة على ارتفاع 1500 قدم

METAR: GUCY 252300Z 27006KT 9999 FEW015 29/25 Q1012 NOSIG

زمن: 02:47 (02:47 UTC)

توقعات

تاريخ ووقت الإصدار 3ساعات و 47 دقيقة قبل الساعة 23:00UTC
التوقعات صالحة من26 الساعة 00 UTC إلى 27 الساعة 06 UTC
ريح 6 عقدة من الغرب/الجنوب الغربي
الرؤية 10 كم أو أكثر
غيوم متفرقة على ارتفاع 1500 قدم
غيوم متفرقة على ارتفاع 11000 قدم
مؤقت
من 26 الساعة 04 UTC إلى 26 الساعة 10 UTC
ريح 12 عقدة من الشرق
الرؤية: 6000 متر
غيوم مفككة على ارتفاع 1300 قدم
غيوم قليلة على ارتفاع 2300 قدم, مزنة ركامية.
ملبد بالغيوم على ارتفاع 10000 قدم
عاصفة رعدية, مطر خفيف,

TAF: GUCY 252300Z 2600/2706 25006KT 9999 SCT015 SCT110 TEMPO 2604/2610 09012KT 6000 -TSRA BKN013 FEW023CB OVC100

أرصاد الطقس والتوقعات من أكثر من 4000 مطار (تقارير الطقس للمطار METAR والتنبؤ بالطقس بالمطارTAF).

المحطات المتاحة هي النقط الصفراء والحمراء على الخريطة.

حرك المؤشر فوق النقطة لمعرفة اسم المحطة.

ثم انقر لمعرفة أرصاد وتوقعات الطقس.

لتغيير الخارطة: اضغط على الأزرار الخضراء مع رمز الصليب الأسود للتكبير. على الزر الأخضر مع شرطة للتصغير، أو على الأسهم الخضراء للخرائط المجاورة.


METAR-TAF: